createdAt,value
2023-02-01T00:01:27.103Z,101736.41
2023-02-01T00:04:14.723Z,101743.28
2023-02-01T00:07:02.824Z,101760.06
2023-02-01T00:09:49.485Z,101749.47
2023-02-01T00:12:36.106Z,101743.50
2023-02-01T00:15:24.117Z,101757.09
2023-02-01T00:18:10.976Z,101755.69
2023-02-01T00:20:57.652Z,101747.19
2023-02-01T00:23:45.124Z,101740.81
2023-02-01T00:26:34.427Z,101742.50
2023-02-01T00:29:22.506Z,101746.16
2023-02-01T00:32:10.278Z,101737.97
2023-02-01T00:34:56.657Z,101738.66
2023-02-01T00:37:43.010Z,101742.34
2023-02-01T00:40:29.668Z,101734.94
2023-02-01T00:43:16.058Z,101732.41
2023-02-01T00:46:02.980Z,101737.09
2023-02-01T00:48:50.766Z,101737.25
2023-02-01T00:51:37.077Z,101743.44
2023-02-01T00:54:23.660Z,101745.59
2023-02-01T00:57:10.253Z,101761.31
2023-02-01T00:59:56.677Z,101760.59
2023-02-01T01:02:43.619Z,101739.25
2023-02-01T01:05:31.735Z,101739.72
2023-02-01T01:08:18.526Z,101740.63
2023-02-01T01:11:08.852Z,101741.34
2023-02-01T01:13:59.873Z,101745.03
2023-02-01T01:16:46.133Z,101736.63
2023-02-01T01:19:32.397Z,101736.13
2023-02-01T01:22:20.006Z,101740.28
2023-02-01T01:25:07.248Z,101736.09
2023-02-01T01:27:53.870Z,101739.91
2023-02-01T01:30:40.407Z,101733.94
2023-02-01T01:33:26.689Z,101741.06
2023-02-01T01:36:14.309Z,101731.00
2023-02-01T01:39:02.048Z,101739.53
2023-02-01T01:41:48.431Z,101755.16
2023-02-01T01:45:01.052Z,101756.16
2023-02-01T01:47:53.610Z,101752.63
2023-02-01T01:50:44.583Z,101747.00
2023-02-01T01:53:40.453Z,101738.22
2023-02-01T01:56:30.651Z,101743.16
2023-02-01T01:59:17.648Z,101738.13
2023-02-01T02:02:05.174Z,101723.88
2023-02-01T02:04:52.247Z,101687.97
2023-02-01T02:07:42.081Z,101671.53
2023-02-01T02:10:43.835Z,101663.06
2023-02-01T02:13:34.749Z,101662.59
2023-02-01T02:16:31.207Z,101645.66
2023-02-01T02:19:59.762Z,101635.63
2023-02-01T02:23:02.986Z,101629.88
2023-02-01T02:26:19.015Z,101624.94
2023-02-01T02:29:34.378Z,101619.28
2023-02-01T02:33:00.944Z,101602.75
2023-02-01T02:35:57.131Z,101620.75
2023-02-01T02:38:50.762Z,101605.03
2023-02-01T02:42:08.050Z,101599.50
2023-02-01T02:45:22.695Z,101610.13
2023-02-01T02:48:13.585Z,101590.75
2023-02-01T02:51:24.533Z,101597.38
2023-02-01T02:54:33.369Z,101609.47
2023-02-01T02:57:42.800Z,101613.25
2023-02-01T03:00:51.567Z,101642.81
2023-02-01T03:03:57.768Z,101644.88
2023-02-01T03:06:46.372Z,101621.81
2023-02-01T03:09:36.359Z,101620.59
2023-02-01T03:12:49.252Z,101620.88
2023-02-01T03:15:40.763Z,101628.78
2023-02-01T03:18:34.568Z,101628.53
2023-02-01T03:21:25.506Z,101636.81
2023-02-01T03:24:16.873Z,101649.06
2023-02-01T03:27:10.107Z,101650.00
2023-02-01T03:30:04.150Z,101625.38
2023-02-01T03:33:00.606Z,101635.31
2023-02-01T03:35:59.245Z,101652.81
2023-02-01T03:38:54.243Z,101660.16
2023-02-01T03:41:44.691Z,101657.13
2023-02-01T03:44:34.399Z,101660.50
2023-02-01T03:47:23.802Z,101661.88
2023-02-01T03:50:14.881Z,101648.63
2023-02-01T03:53:07.211Z,101646.31
2023-02-01T03:55:56.351Z,101650.97
2023-02-01T03:58:58.737Z,101661.72
2023-02-01T04:01:46.756Z,101655.81
2023-02-01T04:04:33.906Z,101661.56
2023-02-01T04:07:20.456Z,101662.50
2023-02-01T04:10:07.668Z,101662.94
2023-02-01T04:12:53.893Z,101658.22
2023-02-01T04:15:41.802Z,101658.50
2023-02-01T04:18:28.472Z,101662.56
2023-02-01T04:21:14.933Z,101664.03
2023-02-01T04:24:01.673Z,101655.56
2023-02-01T04:26:48.861Z,101663.41
2023-02-01T04:29:35.583Z,101659.84
2023-02-01T04:32:23.568Z,101676.84
2023-02-01T04:35:10.991Z,101670.47
2023-02-01T04:37:57.282Z,101671.31
2023-02-01T04:40:43.785Z,101654.47
2023-02-01T04:43:30.383Z,101630.25
2023-02-01T04:46:16.958Z,101613.69
2023-02-01T04:49:04.728Z,101611.84
2023-02-01T04:51:51.332Z,101619.34
2023-02-01T04:54:38.181Z,101606.91
2023-02-01T04:57:24.374Z,101602.09
2023-02-01T05:00:12.688Z,101599.66
2023-02-01T05:02:59.461Z,101593.56
2023-02-01T05:05:49.272Z,101591.44
2023-02-01T05:08:37.787Z,101576.44
2023-02-01T05:11:43.108Z,101573.88
2023-02-01T05:14:29.796Z,101571.09
2023-02-01T05:17:16.232Z,101589.22
2023-02-01T05:20:02.696Z,101604.41
2023-02-01T05:22:50.625Z,101630.16
2023-02-01T05:25:37.216Z,101628.50
2023-02-01T05:28:23.801Z,101635.16
2023-02-01T05:31:11.948Z,101652.88
2023-02-01T05:33:58.852Z,101646.25
2023-02-01T05:36:45.336Z,101649.63
2023-02-01T05:39:33.284Z,101652.34
2023-02-01T05:42:19.916Z,101660.72
2023-02-01T05:45:08.565Z,101663.25
2023-02-01T05:47:55.033Z,101660.78
2023-02-01T05:50:41.694Z,101671.34
2023-02-01T05:53:29.261Z,101665.19
2023-02-01T05:56:17.114Z,101664.91
2023-02-01T05:59:03.756Z,101671.81
2023-02-01T06:01:50.358Z,101656.84
2023-02-01T06:04:36.773Z,101657.84
2023-02-01T06:07:23.444Z,101653.16
2023-02-01T06:10:11.621Z,101651.47
2023-02-01T06:12:59.362Z,101649.00
2023-02-01T06:15:46.099Z,101652.16
2023-02-01T06:18:32.729Z,101661.63
2023-02-01T06:21:24.574Z,101657.38
2023-02-01T06:24:11.708Z,101656.69
2023-02-01T06:26:57.970Z,101669.41
2023-02-01T06:29:45.992Z,101679.81
2023-02-01T06:32:32.738Z,101679.78
2023-02-01T06:35:19.165Z,101674.50
2023-02-01T06:38:05.906Z,101674.81
2023-02-01T06:40:54.958Z,101681.06
2023-02-01T06:43:41.692Z,101683.91
2023-02-01T06:46:30.091Z,101691.97
2023-02-01T06:49:16.699Z,101690.97
2023-02-01T06:52:03.554Z,101678.06
2023-02-01T06:54:50.127Z,101680.56
2023-02-01T06:57:36.877Z,101677.63
2023-02-01T07:00:25.331Z,101689.63
2023-02-01T07:03:14.157Z,101655.56
2023-02-01T07:06:01.041Z,101638.72
2023-02-01T07:08:47.970Z,101641.75
2023-02-01T07:11:35.208Z,101637.44
2023-02-01T07:14:22.110Z,101635.03
2023-02-01T07:17:08.711Z,101653.91
2023-02-01T07:19:56.949Z,101653.03
2023-02-01T07:22:43.876Z,101624.97
2023-02-01T07:25:30.630Z,101627.66
2023-02-01T07:28:17.718Z,101621.28
2023-02-01T07:31:05.978Z,101620.13
2023-02-01T07:33:53.605Z,101606.19
2023-02-01T07:36:42.914Z,101610.31
2023-02-01T07:39:32.875Z,101620.31
2023-02-01T07:42:19.631Z,101647.88
2023-02-01T07:45:21.028Z,101666.25
2023-02-01T07:48:08.924Z,101630.09
2023-02-01T07:51:02.990Z,101640.41
2023-02-01T07:53:50.918Z,101656.78
2023-02-01T07:56:37.801Z,101654.72
2023-02-01T07:59:24.587Z,101646.31
2023-02-01T08:02:10.369Z,101654.81
2023-02-01T08:04:56.893Z,101662.47
2023-02-01T08:07:43.500Z,101663.34
2023-02-01T08:10:31.505Z,101676.81
2023-02-01T08:13:18.101Z,101675.91
2023-02-01T08:16:06.755Z,101660.13
2023-02-01T08:18:53.695Z,101656.56
2023-02-01T08:21:40.687Z,101655.56
2023-02-01T08:24:27.522Z,101646.97
2023-02-01T08:27:15.523Z,101652.59
2023-02-01T08:30:02.448Z,101636.19
2023-02-01T08:32:49.131Z,101631.91
2023-02-01T08:35:43.931Z,101640.97
2023-02-01T08:38:30.905Z,101637.56
2023-02-01T08:41:20.312Z,101640.09
2023-02-01T08:44:08.575Z,101622.78
2023-02-01T08:46:55.431Z,101626.91
2023-02-01T08:49:42.089Z,101623.16
2023-02-01T08:52:29.057Z,101617.91
2023-02-01T08:55:16.708Z,101631.97
2023-02-01T08:58:03.596Z,101616.44
2023-02-01T09:00:52.105Z,101624.69
2023-02-01T09:03:39.084Z,101629.75
2023-02-01T09:06:25.807Z,101622.34
2023-02-01T09:09:12.665Z,101618.13
2023-02-01T09:11:59.535Z,101627.84
2023-02-01T09:14:46.250Z,101633.69
2023-02-01T09:17:34.355Z,101617.13
2023-02-01T09:20:25.338Z,101625.84
2023-02-01T09:23:12.428Z,101634.72
2023-02-01T09:26:01.059Z,101620.84
2023-02-01T09:28:47.708Z,101627.63
2023-02-01T09:31:34.477Z,101622.94
2023-02-01T09:34:22.480Z,101632.91
2023-02-01T09:37:08.926Z,101626.31
2023-02-01T09:39:55.603Z,101635.16
2023-02-01T09:42:56.677Z,101641.66
2023-02-01T09:45:51.623Z,101664.03
2023-02-01T09:48:41.719Z,101658.31
2023-02-01T09:51:35.715Z,101645.69
2023-02-01T09:54:25.551Z,101655.94
2023-02-01T09:57:19.130Z,101663.25
2023-02-01T10:00:16.370Z,101669.97
2023-02-01T10:03:03.675Z,101666.41
2023-02-01T10:06:07.029Z,101661.19
2023-02-01T10:09:11.475Z,101647.00
2023-02-01T10:12:19.279Z,101652.16
2023-02-01T10:15:22.286Z,101653.06
2023-02-01T10:18:27.209Z,101650.81
2023-02-01T10:21:24.345Z,101624.06
2023-02-01T10:24:35.972Z,101620.28
2023-02-01T10:27:24.895Z,101627.50
2023-02-01T10:30:20.541Z,101622.94
2023-02-01T10:33:18.275Z,101621.03
2023-02-01T10:36:14.061Z,101626.78
2023-02-01T10:39:01.466Z,101625.38
2023-02-01T10:41:49.467Z,101620.16
2023-02-01T10:44:40.516Z,101621.38
2023-02-01T10:47:27.321Z,101630.31
2023-02-01T10:50:21.057Z,101628.44
2023-02-01T10:53:11.982Z,101617.16
2023-02-01T10:55:58.772Z,101638.22
2023-02-01T10:58:48.759Z,101632.88
2023-02-01T11:01:39.709Z,101636.97
2023-02-01T11:04:28.330Z,101630.47
2023-02-01T11:07:21.556Z,101642.53
2023-02-01T11:10:30.470Z,101636.34
2023-02-01T11:13:20.164Z,101625.16
2023-02-01T11:16:08.104Z,101628.63
2023-02-01T11:18:56.782Z,101618.84
2023-02-01T11:21:45.758Z,101603.03
2023-02-01T11:24:36.605Z,101593.69
2023-02-01T11:27:27.896Z,101597.47
2023-02-01T11:30:24.535Z,101583.84
2023-02-01T11:33:16.019Z,101581.88
2023-02-01T11:36:08.639Z,101571.41
2023-02-01T11:39:10.202Z,101576.13
2023-02-01T11:42:01.975Z,101586.78
2023-02-01T11:44:49.672Z,101588.34
2023-02-01T11:47:43.033Z,101590.28
2023-02-01T11:50:40.183Z,101595.53
2023-02-01T11:53:40.976Z,101609.75
2023-02-01T11:56:35.495Z,101609.78
2023-02-01T11:59:33.908Z,101593.81
2023-02-01T12:02:47.615Z,101605.22
2023-02-01T12:05:47.490Z,101600.66
2023-02-01T12:08:54.791Z,101600.38
2023-02-01T12:11:53.974Z,101596.22
2023-02-01T12:15:01.107Z,101606.19
2023-02-01T12:18:30.805Z,101608.50
2023-02-01T12:21:32.093Z,101596.91
2023-02-01T12:24:41.576Z,101594.19
2023-02-01T12:27:47.813Z,101598.66
2023-02-01T12:30:59.160Z,101597.47
2023-02-01T12:34:04.525Z,101601.22
2023-02-01T12:37:00.974Z,101596.19
2023-02-01T12:39:58.690Z,101606.81
2023-02-01T12:42:55.311Z,101598.84
2023-02-01T12:45:46.298Z,101610.91
2023-02-01T12:48:37.089Z,101600.75
2023-02-01T12:51:29.550Z,101605.28
2023-02-01T12:54:23.534Z,101611.56
2023-02-01T12:57:15.716Z,101614.03
2023-02-01T13:00:11.250Z,101608.03
2023-02-01T13:03:05.420Z,101599.34
2023-02-01T13:05:58.484Z,101599.16
2023-02-01T13:08:52.947Z,101591.13
2023-02-01T13:11:41.492Z,101614.03
2023-02-01T13:14:35.903Z,101594.47
2023-02-01T13:17:26.025Z,101600.75
2023-02-01T13:20:21.348Z,101600.97
2023-02-01T13:23:17.978Z,101603.72
2023-02-01T13:26:07.097Z,101611.03
2023-02-01T13:28:58.174Z,101594.81
2023-02-01T13:32:06.115Z,101613.88
2023-02-01T13:35:09.614Z,101611.00
2023-02-01T13:38:08.685Z,101604.81
2023-02-01T13:41:09.322Z,101615.72
2023-02-01T13:44:02.020Z,101625.50
2023-02-01T13:46:52.576Z,101621.44
2023-02-01T13:49:42.112Z,101614.13
2023-02-01T13:52:36.338Z,101617.81
2023-02-01T13:55:31.175Z,101609.69
2023-02-01T13:58:21.757Z,101622.38
2023-02-01T14:01:37.167Z,101620.34
2023-02-01T14:04:49.842Z,101625.75
2023-02-01T14:07:36.525Z,101619.31
2023-02-01T14:10:49.134Z,101624.28
2023-02-01T14:13:37.828Z,101620.31
2023-02-01T14:16:26.771Z,101612.31
2023-02-01T14:19:25.034Z,101608.91
2023-02-01T14:22:35.255Z,101615.22
2023-02-01T14:25:22.828Z,101610.72
2023-02-01T14:28:14.855Z,101609.88
2023-02-01T14:31:01.732Z,101613.13
2023-02-01T14:33:48.977Z,101605.47
2023-02-01T14:36:46.325Z,101603.19
2023-02-01T14:39:40.973Z,101600.72
2023-02-01T14:42:30.467Z,101616.47
2023-02-01T14:45:52.743Z,101619.44
2023-02-01T14:48:46.593Z,101623.94
2023-02-01T14:51:33.762Z,101616.97
2023-02-01T14:54:21.993Z,101594.69
2023-02-01T14:57:18.006Z,101567.63
2023-02-01T15:00:22.388Z,101565.44
2023-02-01T15:03:25.798Z,101576.91
2023-02-01T15:06:24.147Z,101591.28
2023-02-01T15:09:16.491Z,101595.16
2023-02-01T15:12:07.120Z,101598.06
2023-02-01T15:15:17.035Z,101590.75
2023-02-01T15:18:04.068Z,101595.13
2023-02-01T15:21:06.980Z,101607.72
2023-02-01T15:24:15.413Z,101594.09
2023-02-01T15:27:07.773Z,101607.22
2023-02-01T15:29:54.449Z,101618.84
2023-02-01T15:32:42.533Z,101619.97
2023-02-01T15:35:44.198Z,101623.47
2023-02-01T15:38:37.530Z,101620.84
2023-02-01T15:41:31.967Z,101625.13
2023-02-01T15:44:33.005Z,101615.84
2023-02-01T15:47:22.124Z,101623.78
2023-02-01T15:50:16.639Z,101618.84
2023-02-01T15:53:03.482Z,101627.41
2023-02-01T15:55:56.578Z,101627.78
2023-02-01T15:58:46.945Z,101623.00
2023-02-01T16:01:41.613Z,101622.22
2023-02-01T16:04:31.828Z,101606.72
2023-02-01T16:07:29.011Z,101616.22
2023-02-01T16:10:27.406Z,101623.84
2023-02-01T16:13:14.995Z,101626.47
2023-02-01T16:16:01.952Z,101626.66
2023-02-01T16:18:50.336Z,101634.44
2023-02-01T16:21:37.032Z,101631.38
2023-02-01T16:24:25.977Z,101623.72
2023-02-01T16:27:12.884Z,101633.72
2023-02-01T16:29:59.496Z,101622.00
2023-02-01T16:32:46.252Z,101642.22
2023-02-01T16:35:37.497Z,101646.25
2023-02-01T16:38:24.686Z,101644.50
2023-02-01T16:41:14.894Z,101647.72
2023-02-01T16:44:01.389Z,101655.19
2023-02-01T16:46:50.401Z,101667.72
2023-02-01T16:49:37.632Z,101664.84
2023-02-01T16:52:28.674Z,101674.91
2023-02-01T16:55:16.786Z,101680.63
2023-02-01T16:58:03.786Z,101678.13
2023-02-01T17:00:51.894Z,101690.47
2023-02-01T17:03:38.804Z,101704.91
2023-02-01T17:06:28.338Z,101707.66
2023-02-01T17:09:16.844Z,101711.16
2023-02-01T17:12:03.449Z,101709.53
2023-02-01T17:14:51.002Z,101710.75
2023-02-01T17:17:40.084Z,101718.47
2023-02-01T17:20:32.477Z,101716.22
2023-02-01T17:23:20.786Z,101706.41
2023-02-01T17:26:11.363Z,101690.69
2023-02-01T17:28:58.010Z,101697.13
2023-02-01T17:31:47.729Z,101691.53
2023-02-01T17:34:34.384Z,101701.13
2023-02-01T17:37:26.967Z,101705.25
2023-02-01T17:40:14.209Z,101714.00
2023-02-01T17:43:02.421Z,101733.50
2023-02-01T17:45:53.118Z,101725.84
2023-02-01T17:48:39.995Z,101728.41
2023-02-01T17:51:28.601Z,101725.16
2023-02-01T17:54:17.045Z,101723.19
2023-02-01T17:57:04.308Z,101726.78
2023-02-01T17:59:52.334Z,101711.22
2023-02-01T18:02:39.224Z,101709.09
2023-02-01T18:05:29.731Z,101707.94
2023-02-01T18:08:16.309Z,101700.84
2023-02-01T18:11:03.236Z,101701.28
2023-02-01T18:13:50.514Z,101691.13
2023-02-01T18:16:38.792Z,101704.75
2023-02-01T18:19:26.311Z,101701.16
2023-02-01T18:22:17.901Z,101708.63
2023-02-01T18:25:16.894Z,101702.34
2023-02-01T18:28:04.881Z,101704.38
2023-02-01T18:30:52.337Z,101706.28
2023-02-01T18:33:40.610Z,101708.56
2023-02-01T18:36:30.498Z,101713.88
2023-02-01T18:39:17.441Z,101724.31
2023-02-01T18:42:04.052Z,101729.06
2023-02-01T18:44:51.016Z,101716.91
2023-02-01T18:47:37.425Z,101710.34
2023-02-01T18:50:26.024Z,101716.59
2023-02-01T18:53:15.336Z,101726.44
2023-02-01T18:56:02.479Z,101725.94
2023-02-01T18:58:49.790Z,101729.88
2023-02-01T19:01:36.599Z,101749.44
2023-02-01T19:04:26.032Z,101747.19
2023-02-01T19:07:15.667Z,101745.88
2023-02-01T19:10:02.411Z,101741.97
2023-02-01T19:12:49.813Z,101749.53
2023-02-01T19:15:40.394Z,101755.00
2023-02-01T19:18:27.280Z,101743.03
2023-02-01T19:21:15.300Z,101741.38
2023-02-01T19:24:03.034Z,101743.31
2023-02-01T19:26:51.436Z,101746.69
2023-02-01T19:29:40.793Z,101741.81
2023-02-01T19:32:27.840Z,101740.38
2023-02-01T19:35:16.888Z,101743.66
2023-02-01T19:38:03.803Z,101751.66
2023-02-01T19:40:51.680Z,101748.84
2023-02-01T19:43:39.731Z,101756.72
2023-02-01T19:46:26.520Z,101754.38
2023-02-01T19:49:13.314Z,101752.31
2023-02-01T19:52:00.107Z,101749.28
2023-02-01T19:54:46.526Z,101758.19
2023-02-01T19:57:36.111Z,101743.06
2023-02-01T20:00:22.509Z,101751.94
2023-02-01T20:03:10.071Z,101742.44
2023-02-01T20:05:58.806Z,101753.66
2023-02-01T20:08:46.111Z,101740.72
2023-02-01T20:11:33.229Z,101764.81
2023-02-01T20:14:22.044Z,101760.75
2023-02-01T20:17:08.992Z,101760.50
2023-02-01T20:19:55.602Z,101785.44
2023-02-01T20:22:45.075Z,101781.81
2023-02-01T20:25:32.645Z,101781.88
2023-02-01T20:28:19.174Z,101779.97
2023-02-01T20:31:10.728Z,101781.28
2023-02-01T20:33:58.095Z,101787.66
2023-02-01T20:36:44.599Z,101788.69
2023-02-01T20:39:31.052Z,101796.75
2023-02-01T20:42:17.759Z,101798.66
2023-02-01T20:45:05.226Z,101800.34
2023-02-01T20:47:54.170Z,101798.06
2023-02-01T20:50:40.923Z,101801.50
2023-02-01T20:53:27.727Z,101785.44
2023-02-01T20:56:14.907Z,101803.28
2023-02-01T20:59:11.999Z,101800.72
2023-02-01T21:01:59.202Z,101803.53
2023-02-01T21:04:47.118Z,101799.03
2023-02-01T21:07:34.189Z,101805.25
2023-02-01T21:10:20.771Z,101794.63
2023-02-01T21:13:08.222Z,101806.72
2023-02-01T21:15:55.060Z,101795.78
2023-02-01T21:18:41.961Z,101799.09
2023-02-01T21:21:29.727Z,101800.88
2023-02-01T21:24:16.449Z,101801.78
2023-02-01T21:27:03.118Z,101795.03
2023-02-01T21:29:49.712Z,101795.06
2023-02-01T21:32:36.710Z,101804.41
2023-02-01T21:35:23.994Z,101808.34
2023-02-01T21:38:11.998Z,101801.16
2023-02-01T21:41:17.560Z,101809.28
2023-02-01T21:44:04.663Z,101816.16
2023-02-01T21:46:51.180Z,101808.09
2023-02-01T21:49:37.897Z,101809.31
2023-02-01T21:52:24.633Z,101815.41
2023-02-01T21:55:13.680Z,101817.94
2023-02-01T21:58:00.450Z,101825.16
2023-02-01T22:00:47.439Z,101826.41
2023-02-01T22:03:34.354Z,101831.38
2023-02-01T22:06:24.741Z,101829.38
2023-02-01T22:09:14.502Z,101835.44
2023-02-01T22:12:02.396Z,101839.91
2023-02-01T22:14:49.675Z,101828.53
2023-02-01T22:17:36.632Z,101823.53
2023-02-01T22:20:23.358Z,101819.69
2023-02-01T22:23:09.942Z,101822.06
2023-02-01T22:26:01.178Z,101819.03
2023-02-01T22:28:49.394Z,101828.75
2023-02-01T22:31:36.377Z,101819.75
2023-02-01T22:34:23.064Z,101803.44
2023-02-01T22:37:11.068Z,101786.38
2023-02-01T22:39:58.170Z,101792.38
2023-02-01T22:42:44.860Z,101782.28
2023-02-01T22:45:32.741Z,101783.41
2023-02-01T22:48:19.523Z,101776.78
2023-02-01T22:51:07.455Z,101775.34
2023-02-01T22:53:56.902Z,101778.34
2023-02-01T22:56:43.667Z,101777.00
2023-02-01T23:02:48.336Z,101771.81
2023-02-01T23:05:35.003Z,101766.31
2023-02-01T23:08:21.914Z,101770.88
2023-02-01T23:11:10.052Z,101778.19
2023-02-01T23:13:57.350Z,101787.66
2023-02-01T23:16:45.935Z,101789.19
2023-02-01T23:19:33.749Z,101799.16
2023-02-01T23:22:20.272Z,101803.22
2023-02-01T23:25:07.401Z,101809.44
2023-02-01T23:27:53.970Z,101802.91
2023-02-01T23:30:40.413Z,101803.03
2023-02-01T23:33:28.969Z,101802.25
2023-02-01T23:36:18.141Z,101801.22
2023-02-01T23:39:04.769Z,101805.34
2023-02-01T23:41:51.324Z,101807.50
2023-02-01T23:44:38.249Z,101800.88
2023-02-01T23:47:24.588Z,101805.81
2023-02-01T23:50:11.658Z,101800.38
2023-02-01T23:52:59.461Z,101806.81
2023-02-01T23:55:46.190Z,101798.78
2023-02-01T23:58:33.067Z,101802.78
